3°C Temp
'.PHP_EOL;
-1°C Dewpoint
75% Humidity
Temperature
13 KM/H
8 MPH
7 KTS
160°
South South
East

Wind
Mostly Scattered Clouds
Pressure 1026.42 (hPa)- 30.31 (in)
Visibility 10 (mi) - 16.1 (km)

Current Conditions
KTUL
Location 18(mi)
Metar:
KTUL 041153Z 16007KT 10SM SCT075 SCT160 BKN200 03/M01 A3031 RMK AO2 SLP268 T00281011 10039 20017 56008
Sat 4th February 04:53 am

Airport
  Metar Aviation API Data Provided by https://www.checkwx.com/ Icons created by weather34.com